Terminal Aerodrome Forecast
Issued by NWS Amarillo, TX

Home | Current Version | Previous Version | Text Only | Print | Product List | Glossary On
Versions: 1 2 3 4 5 6 7 8 9 10 11 12 13 14 15 16 17 18 19
553
FTUS44 KAMA 260531
TAFGUY
TAF
KGUY 260531Z 2606/2706 VRB03KT P6SM SKC
     FM260800 15011KT P6SM BKN200
     FM261600 28012KT P6SM BKN200
     FM262000 32019G29KT P6SM BKN200
     FM270200 34015KT P6SM SKC=

USA.gov is the U.S. government's official web portal to all federal, state and local government web resources and services.